createdAt,value
2023-02-08T00:01:45.357Z,102744.34
2023-02-08T00:04:12.406Z,102748.45
2023-02-08T00:06:41.823Z,102752.70
2023-02-08T00:09:11.278Z,102758.45
2023-02-08T00:11:38.514Z,102760.32
2023-02-08T00:14:05.598Z,102755.00
2023-02-08T00:16:33.022Z,102759.75
2023-02-08T00:19:00.135Z,102756.98
2023-02-08T00:21:47.784Z,102759.40
2023-02-08T00:24:14.784Z,102758.17
2023-02-08T00:26:44.701Z,102762.06
2023-02-08T00:29:14.518Z,102759.52
2023-02-08T00:31:43.769Z,102757.61
2023-02-08T00:34:11.082Z,102760.71
2023-02-08T00:36:46.858Z,102761.35
2023-02-08T00:39:14.214Z,102759.91
2023-02-08T00:41:51.619Z,102758.19
2023-02-08T00:44:18.938Z,102759.71
2023-02-08T00:46:46.055Z,102764.56
2023-02-08T00:49:13.789Z,102762.38
2023-02-08T00:51:40.788Z,102763.05
2023-02-08T00:54:07.952Z,102766.17
2023-02-08T00:56:38.379Z,102763.91
2023-02-08T00:59:05.359Z,102768.64
2023-02-08T01:01:35.900Z,102765.38
2023-02-08T01:04:10.800Z,102766.40
2023-02-08T01:06:38.022Z,102768.77
2023-02-08T01:09:05.206Z,102768.13
2023-02-08T01:11:34.814Z,102770.37
2023-02-08T01:14:01.905Z,102773.80
2023-02-08T01:16:31.494Z,102767.59
2023-02-08T01:19:03.340Z,102766.78
2023-02-08T01:21:32.838Z,102767.98
2023-02-08T01:24:02.618Z,102771.23
2023-02-08T01:26:50.173Z,102769.00
2023-02-08T01:29:17.537Z,102766.91
2023-02-08T01:31:54.745Z,102765.90
2023-02-08T01:34:24.918Z,102771.65
2023-02-08T01:36:51.992Z,102770.10
2023-02-08T01:39:21.358Z,102771.05
2023-02-08T01:41:48.702Z,102773.34
2023-02-08T01:44:50.847Z,102773.48
2023-02-08T01:47:18.526Z,102774.98
2023-02-08T01:49:45.764Z,102779.89
2023-02-08T01:52:15.800Z,102779.00
2023-02-08T01:54:47.559Z,102776.23
2023-02-08T01:57:33.503Z,102769.56
2023-02-08T02:00:03.105Z,102769.67
2023-02-08T02:02:41.992Z,102771.98
2023-02-08T02:05:12.761Z,102774.71
2023-02-08T02:07:40.612Z,102779.23
2023-02-08T02:10:13.161Z,102777.30
2023-02-08T02:12:42.774Z,102784.01
2023-02-08T02:15:13.139Z,102781.15
2023-02-08T02:17:41.516Z,102783.59
2023-02-08T02:20:15.768Z,102789.11
2023-02-08T02:23:20.409Z,102786.31
2023-02-08T02:26:12.655Z,102789.30
2023-02-08T02:29:01.931Z,102789.02
2023-02-08T02:32:01.031Z,102790.59
2023-02-08T02:34:39.784Z,102795.38
2023-02-08T02:37:20.725Z,102799.31
2023-02-08T02:39:56.625Z,102803.11
2023-02-08T02:42:46.194Z,102808.12
2023-02-08T02:45:28.071Z,102806.07
2023-02-08T02:48:03.736Z,102808.23
2023-02-08T02:50:38.385Z,102804.95
2023-02-08T02:53:13.938Z,102804.99
2023-02-08T02:56:05.966Z,102811.55
2023-02-08T02:58:37.554Z,102812.33
2023-02-08T03:01:04.982Z,102812.89
2023-02-08T03:03:35.975Z,102813.35
2023-02-08T03:06:08.900Z,102813.50
2023-02-08T03:09:01.997Z,102815.86
2023-02-08T03:11:42.660Z,102815.89
2023-02-08T03:14:29.255Z,102811.86
2023-02-08T03:17:13.954Z,102814.30
2023-02-08T03:19:48.031Z,102816.83
2023-02-08T03:22:21.359Z,102819.00
2023-02-08T03:24:56.124Z,102816.95
2023-02-08T03:27:29.836Z,102819.05
2023-02-08T03:30:02.465Z,102823.58
2023-02-08T03:32:41.904Z,102824.66
2023-02-08T03:35:33.999Z,102825.23
2023-02-08T03:38:06.148Z,102824.77
2023-02-08T03:40:43.809Z,102820.96
2023-02-08T03:43:19.760Z,102824.77
2023-02-08T03:46:03.300Z,102828.04
2023-02-08T03:48:55.444Z,102832.89
2023-02-08T03:51:44.863Z,102836.16
2023-02-08T03:54:25.183Z,102834.36
2023-02-08T03:57:11.615Z,102832.45
2023-02-08T03:59:42.131Z,102834.21
2023-02-08T04:02:32.709Z,102835.27
2023-02-08T04:05:21.002Z,102836.06
2023-02-08T04:07:47.923Z,102833.92
2023-02-08T04:10:15.160Z,102836.35
2023-02-08T04:12:53.202Z,102833.80
2023-02-08T04:15:20.714Z,102835.34
2023-02-08T04:17:50.806Z,102837.61
2023-02-08T04:20:20.685Z,102843.37
2023-02-08T04:22:56.841Z,102842.79
2023-02-08T04:25:24.050Z,102836.79
2023-02-08T04:27:51.455Z,102840.38
2023-02-08T04:30:18.790Z,102839.21
2023-02-08T04:32:45.959Z,102837.38
2023-02-08T04:35:13.058Z,102837.55
2023-02-08T04:37:40.153Z,102843.73
2023-02-08T04:40:13.748Z,102844.50
2023-02-08T04:42:43.400Z,102843.73
2023-02-08T04:45:11.701Z,102848.11
2023-02-08T04:47:59.260Z,102850.21
2023-02-08T04:50:46.683Z,102851.98
2023-02-08T04:53:21.418Z,102848.59
2023-02-08T04:55:48.596Z,102847.79
2023-02-08T04:58:23.986Z,102845.79
2023-02-08T05:00:52.444Z,102846.35
2023-02-08T05:03:19.656Z,102848.54
2023-02-08T05:05:46.827Z,102853.00
2023-02-08T05:08:13.902Z,102848.59
2023-02-08T05:10:46.963Z,102851.38
2023-02-08T05:13:16.946Z,102857.74
2023-02-08T05:15:44.076Z,102859.61
2023-02-08T05:18:11.109Z,102863.14
2023-02-08T05:20:41.051Z,102865.25
2023-02-08T05:23:08.580Z,102868.88
2023-02-08T05:25:40.563Z,102870.40
2023-02-08T05:28:14.973Z,102873.77
2023-02-08T05:30:44.608Z,102875.29
2023-02-08T05:33:22.782Z,102879.88
2023-02-08T05:35:50.071Z,102878.85
2023-02-08T05:38:17.088Z,102881.73
2023-02-08T05:40:47.245Z,102885.44
2023-02-08T05:43:18.565Z,102891.34
2023-02-08T05:45:45.527Z,102892.25
2023-02-08T05:48:12.896Z,102889.70
2023-02-08T05:50:40.149Z,102893.79
2023-02-08T05:53:09.979Z,102899.63
2023-02-08T05:55:37.093Z,102900.76
2023-02-08T05:58:09.373Z,102901.94
2023-02-08T06:00:38.842Z,102901.61
2023-02-08T06:03:09.288Z,102906.39
2023-02-08T06:05:40.565Z,102913.34
2023-02-08T06:08:08.126Z,102918.94
2023-02-08T06:10:35.457Z,102916.83
2023-02-08T06:13:23.149Z,102921.06
2023-02-08T06:16:11.138Z,102920.83
2023-02-08T06:18:38.433Z,102920.79
2023-02-08T06:21:08.592Z,102921.14
2023-02-08T06:23:35.622Z,102922.85
2023-02-08T06:26:03.964Z,102926.61
2023-02-08T06:28:31.211Z,102928.83
2023-02-08T06:31:00.840Z,102931.95
2023-02-08T06:33:27.787Z,102932.65
2023-02-08T06:35:55.556Z,102930.86
2023-02-08T06:38:22.920Z,102932.00
2023-02-08T06:40:50.978Z,102934.71
2023-02-08T06:43:21.122Z,102937.89
2023-02-08T06:45:49.118Z,102941.21
2023-02-08T06:48:16.581Z,102939.66
2023-02-08T06:50:46.541Z,102944.98
2023-02-08T06:53:13.564Z,102950.09
2023-02-08T06:55:48.681Z,102953.47
2023-02-08T06:58:15.733Z,102953.77
2023-02-08T07:00:50.517Z,102956.40
2023-02-08T07:03:18.609Z,102963.00
2023-02-08T07:06:03.425Z,102966.72
2023-02-08T07:08:34.300Z,102971.11
2023-02-08T07:11:01.606Z,102976.40
2023-02-08T07:13:33.672Z,102979.64
2023-02-08T07:16:00.718Z,102986.25
2023-02-08T07:18:27.721Z,102989.02
2023-02-08T07:20:54.850Z,102992.11
2023-02-08T07:23:35.755Z,102995.08
2023-02-08T07:26:05.682Z,102994.52
2023-02-08T07:28:52.962Z,102993.88
2023-02-08T07:31:20.229Z,102996.52
2023-02-08T07:33:59.768Z,102996.67
2023-02-08T07:36:27.056Z,102994.84
2023-02-08T07:38:54.044Z,102993.46
2023-02-08T07:41:23.663Z,102993.08
2023-02-08T07:44:09.346Z,102987.67
2023-02-08T07:46:36.566Z,102987.83
2023-02-08T07:49:03.793Z,102991.63
2023-02-08T07:51:42.120Z,102988.88
2023-02-08T07:54:09.181Z,102989.67
2023-02-08T07:56:36.183Z,102992.55
2023-02-08T07:59:03.436Z,102989.56
2023-02-08T08:01:30.387Z,102990.98
2023-02-08T08:03:57.435Z,102991.35
2023-02-08T08:06:25.156Z,102990.91
2023-02-08T08:08:55.286Z,102988.71
2023-02-08T08:11:23.051Z,102994.64
2023-02-08T08:14:10.721Z,102997.29
2023-02-08T08:16:47.959Z,102998.58
2023-02-08T08:19:17.555Z,102996.51
2023-02-08T08:21:44.519Z,102998.85
2023-02-08T08:24:20.631Z,102999.42
2023-02-08T08:26:50.390Z,103000.39
2023-02-08T08:29:17.722Z,103003.95
2023-02-08T08:31:54.862Z,103002.34
2023-02-08T08:34:24.417Z,102998.23
2023-02-08T08:36:54.741Z,103002.56
2023-02-08T08:39:21.840Z,103006.46
2023-02-08T08:41:49.075Z,103004.33
2023-02-08T08:44:16.226Z,103005.95
2023-02-08T08:46:45.461Z,103010.91
2023-02-08T08:49:33.207Z,103009.95
2023-02-08T08:52:00.308Z,103014.04
2023-02-08T08:54:27.325Z,103014.33
2023-02-08T08:56:54.189Z,103018.84
2023-02-08T08:59:24.051Z,103024.15
2023-02-08T09:02:05.480Z,103024.66
2023-02-08T09:04:42.192Z,103020.59
2023-02-08T09:07:12.459Z,103017.83
2023-02-08T09:09:49.524Z,103022.05
2023-02-08T09:12:27.105Z,103021.17
2023-02-08T09:14:57.814Z,103019.06
2023-02-08T09:17:38.179Z,103013.42
2023-02-08T09:20:16.930Z,103014.45
2023-02-08T09:22:46.407Z,103018.09
2023-02-08T09:25:33.916Z,103013.57
2023-02-08T09:28:21.067Z,103018.55
2023-02-08T09:30:48.555Z,103021.52
2023-02-08T09:33:15.693Z,103023.27
2023-02-08T09:35:55.381Z,103019.23
2023-02-08T09:38:36.858Z,103019.74
2023-02-08T09:41:36.922Z,103023.88
2023-02-08T09:44:16.968Z,103024.30
2023-02-08T09:46:58.689Z,103030.58
2023-02-08T09:49:30.847Z,103024.31
2023-02-08T09:52:02.369Z,103020.62
2023-02-08T09:54:46.211Z,103017.56
2023-02-08T09:57:29.739Z,103024.45
2023-02-08T10:00:01.581Z,103020.41
2023-02-08T10:02:35.321Z,103020.80
2023-02-08T10:05:21.436Z,103023.69
2023-02-08T10:07:53.459Z,103026.55
2023-02-08T10:10:40.600Z,103028.75
2023-02-08T10:13:41.157Z,103027.92
2023-02-08T10:16:34.361Z,103024.42
2023-02-08T10:19:09.063Z,103027.50
2023-02-08T10:22:00.238Z,103027.44
2023-02-08T10:25:28.584Z,103027.23
2023-02-08T10:28:15.872Z,103026.80
2023-02-08T10:30:54.107Z,103021.92
2023-02-08T10:33:49.371Z,103028.05
2023-02-08T10:36:21.514Z,103027.59
2023-02-08T10:38:51.322Z,103029.36
2023-02-08T10:41:34.701Z,103023.86
2023-02-08T10:44:15.473Z,103026.06
2023-02-08T10:47:14.637Z,103027.27
2023-02-08T10:49:51.644Z,103014.94
2023-02-08T10:52:18.967Z,103009.77
2023-02-08T10:54:58.802Z,103010.55
2023-02-08T10:57:49.779Z,103004.30
2023-02-08T11:00:26.871Z,103008.20
2023-02-08T11:02:57.162Z,103005.52
2023-02-08T11:05:35.089Z,103006.98
2023-02-08T11:08:17.885Z,102997.00
2023-02-08T11:10:56.316Z,103002.08
2023-02-08T11:13:45.607Z,103001.27
2023-02-08T11:16:26.677Z,103000.89
2023-02-08T11:19:07.939Z,103000.88
2023-02-08T11:21:57.259Z,102999.58
2023-02-08T11:24:36.034Z,103002.52
2023-02-08T11:27:34.261Z,103001.98
2023-02-08T11:30:24.593Z,102998.52
2023-02-08T11:33:09.327Z,103000.06
2023-02-08T11:35:37.435Z,103001.73
2023-02-08T11:38:27.556Z,102997.73
2023-02-08T11:41:00.631Z,103001.39
2023-02-08T11:43:32.480Z,103000.95
2023-02-08T11:46:02.029Z,102997.50
2023-02-08T11:48:53.860Z,102999.61
2023-02-08T11:51:41.752Z,102990.49
2023-02-08T11:54:42.102Z,102996.25
2023-02-08T11:57:19.315Z,102996.13
2023-02-08T11:59:53.533Z,102992.53
2023-02-08T12:02:39.128Z,102989.45
2023-02-08T12:05:15.227Z,102987.34
2023-02-08T12:08:12.687Z,102996.84
2023-02-08T12:11:09.412Z,103002.02
2023-02-08T12:13:44.224Z,102997.81
2023-02-08T12:16:50.678Z,102991.41
2023-02-08T12:20:18.906Z,102992.13
2023-02-08T12:22:55.575Z,102995.70
2023-02-08T12:25:35.302Z,102997.13
2023-02-08T12:28:11.396Z,102999.32
2023-02-08T12:30:46.862Z,102998.59
2023-02-08T12:33:42.923Z,102991.60
2023-02-08T12:36:32.855Z,102984.96
2023-02-08T12:39:43.415Z,102988.44
2023-02-08T12:42:32.475Z,102976.19
2023-02-08T12:45:17.618Z,102971.34
2023-02-08T12:48:05.241Z,102970.59
2023-02-08T12:50:54.265Z,102970.84
2023-02-08T12:53:34.189Z,102972.55
2023-02-08T12:56:09.260Z,102970.95
2023-02-08T12:59:01.806Z,102967.02
2023-02-08T13:01:38.860Z,102959.48
2023-02-08T13:04:12.031Z,102955.84
2023-02-08T13:06:53.275Z,102954.41
2023-02-08T13:09:41.873Z,102951.54
2023-02-08T13:12:22.966Z,102947.92
2023-02-08T13:14:55.002Z,102946.23
2023-02-08T13:17:25.838Z,102949.73
2023-02-08T13:20:17.214Z,102941.52
2023-02-08T13:22:57.843Z,102938.19
2023-02-08T13:25:30.445Z,102935.50
2023-02-08T13:28:01.073Z,102935.35
2023-02-08T13:30:28.814Z,102930.05
2023-02-08T13:32:59.636Z,102923.58
2023-02-08T13:35:53.186Z,102921.23
2023-02-08T13:38:32.832Z,102925.15
2023-02-08T13:41:18.707Z,102929.17
2023-02-08T13:43:50.980Z,102931.77
2023-02-08T13:46:46.089Z,102927.04
2023-02-08T13:49:44.907Z,102924.48
2023-02-08T13:52:53.692Z,102922.40
2023-02-08T13:55:53.379Z,102918.98
2023-02-08T13:59:04.514Z,102923.83
2023-02-08T14:01:33.527Z,102919.96
2023-02-08T14:04:39.077Z,102925.51
2023-02-08T14:07:28.791Z,102926.02
2023-02-08T14:10:23.617Z,102926.40
2023-02-08T14:12:58.490Z,102923.46
2023-02-08T14:15:46.652Z,102923.73
2023-02-08T14:18:26.855Z,102921.02
2023-02-08T14:21:06.580Z,102914.95
2023-02-08T14:23:40.211Z,102914.10
2023-02-08T14:26:20.821Z,102920.60
2023-02-08T14:28:55.572Z,102919.84
2023-02-08T14:31:24.182Z,102920.92
2023-02-08T14:33:56.984Z,102923.36
2023-02-08T14:36:36.536Z,102927.23
2023-02-08T14:39:29.072Z,102927.83
2023-02-08T14:42:03.937Z,102925.74
2023-02-08T14:45:04.558Z,102926.69
2023-02-08T14:48:19.186Z,102926.33
2023-02-08T14:51:04.078Z,102925.98
2023-02-08T14:53:54.475Z,102925.58
2023-02-08T14:56:25.724Z,102926.30
2023-02-08T14:58:56.623Z,102925.55
2023-02-08T15:01:33.999Z,102922.33
2023-02-08T15:04:03.309Z,102919.23
2023-02-08T15:06:58.365Z,102921.80
2023-02-08T15:09:28.509Z,102922.27
2023-02-08T15:12:06.844Z,102926.30
2023-02-08T15:14:41.191Z,102928.17
2023-02-08T15:17:28.623Z,102930.20
2023-02-08T15:19:56.840Z,102930.27
2023-02-08T15:22:35.741Z,102926.00
2023-02-08T15:25:22.858Z,102926.20
2023-02-08T15:27:51.856Z,102925.85
2023-02-08T15:30:38.081Z,102923.17
2023-02-08T15:33:11.643Z,102922.45
2023-02-08T15:35:39.332Z,102915.64
2023-02-08T15:38:13.178Z,102915.25
2023-02-08T15:41:08.957Z,102909.43
2023-02-08T15:43:37.327Z,102910.36
2023-02-08T15:46:24.792Z,102904.82
2023-02-08T15:48:56.908Z,102903.45
2023-02-08T15:51:44.617Z,102895.75
2023-02-08T15:54:22.423Z,102887.02
2023-02-08T15:56:55.178Z,102890.61
2023-02-08T15:59:27.191Z,102892.02
2023-02-08T16:01:59.641Z,102891.04
2023-02-08T16:04:27.332Z,102889.08
2023-02-08T16:07:04.846Z,102884.35
2023-02-08T16:09:31.873Z,102887.05
2023-02-08T16:12:01.710Z,102885.79
2023-02-08T16:14:47.203Z,102887.05
2023-02-08T16:17:39.646Z,102884.72
2023-02-08T16:20:32.522Z,102886.33
2023-02-08T16:23:26.840Z,102884.65
2023-02-08T16:25:54.176Z,102885.84
2023-02-08T16:28:30.736Z,102886.72
2023-02-08T16:31:02.991Z,102881.83
2023-02-08T16:33:39.702Z,102879.63
2023-02-08T16:36:07.099Z,102876.27
2023-02-08T16:38:35.247Z,102872.58
2023-02-08T16:41:15.151Z,102873.64
2023-02-08T16:43:44.067Z,102874.52
2023-02-08T16:46:27.819Z,102867.75
2023-02-08T16:48:57.009Z,102864.69
2023-02-08T16:51:27.126Z,102863.45
2023-02-08T16:53:57.858Z,102862.34
2023-02-08T16:56:25.480Z,102863.95
2023-02-08T16:59:13.743Z,102862.45
2023-02-08T17:01:44.201Z,102860.77
2023-02-08T17:04:30.851Z,102860.14
2023-02-08T17:06:57.912Z,102856.63
2023-02-08T17:09:24.827Z,102855.85
2023-02-08T17:11:52.014Z,102857.44
2023-02-08T17:14:19.000Z,102849.13
2023-02-08T17:16:46.358Z,102842.48
2023-02-08T17:19:18.863Z,102843.33
2023-02-08T17:21:48.551Z,102842.02
2023-02-08T17:24:17.378Z,102841.89
2023-02-08T17:26:46.207Z,102845.89
2023-02-08T17:29:14.033Z,102848.64
2023-02-08T17:31:41.266Z,102846.20
2023-02-08T17:34:08.636Z,102838.49
2023-02-08T17:36:46.533Z,102843.21
2023-02-08T17:39:15.335Z,102842.27
2023-02-08T17:41:42.706Z,102838.17
2023-02-08T17:44:11.061Z,102838.52
2023-02-08T17:46:37.985Z,102840.86
2023-02-08T17:49:05.051Z,102843.04
2023-02-08T17:51:33.266Z,102843.19
2023-02-08T17:54:11.387Z,102847.48
2023-02-08T17:56:38.381Z,102846.67
2023-02-08T17:59:05.606Z,102850.51
2023-02-08T18:01:33.410Z,102849.02
2023-02-08T18:04:01.977Z,102852.98
2023-02-08T18:06:29.001Z,102853.21
2023-02-08T18:08:56.794Z,102852.02
2023-02-08T18:11:24.228Z,102857.33
2023-02-08T18:13:53.410Z,102859.58
2023-02-08T18:16:23.519Z,102855.12
2023-02-08T18:18:51.041Z,102851.46
2023-02-08T18:21:20.082Z,102853.45
2023-02-08T18:23:47.814Z,102854.17
2023-02-08T18:26:17.268Z,102850.28
2023-02-08T18:28:44.912Z,102851.70
2023-02-08T18:31:14.717Z,102844.98
2023-02-08T18:33:42.386Z,102842.36
2023-02-08T18:36:13.922Z,102841.06
2023-02-08T18:38:46.277Z,102836.71
2023-02-08T18:41:34.204Z,102835.05
2023-02-08T18:44:02.644Z,102839.48
2023-02-08T18:46:30.819Z,102838.32
2023-02-08T18:48:58.334Z,102838.58
2023-02-08T18:51:26.788Z,102839.21
2023-02-08T18:53:55.959Z,102843.80
2023-02-08T18:56:25.341Z,102843.15
2023-02-08T18:58:53.703Z,102841.58
2023-02-08T19:01:22.957Z,102843.61
2023-02-08T19:03:52.004Z,102848.51
2023-02-08T19:06:22.815Z,102847.95
2023-02-08T19:08:51.679Z,102846.45
2023-02-08T19:11:24.141Z,102848.55
2023-02-08T19:13:52.074Z,102849.27
2023-02-08T19:16:33.606Z,102843.42
2023-02-08T19:19:01.246Z,102839.73
2023-02-08T19:21:36.452Z,102833.82
2023-02-08T19:24:04.582Z,102828.41
2023-02-08T19:26:34.007Z,102828.53
2023-02-08T19:29:06.750Z,102829.84
2023-02-08T19:31:34.501Z,102825.08
2023-02-08T19:34:02.639Z,102823.59
2023-02-08T19:36:31.620Z,102817.61
2023-02-08T19:39:00.335Z,102811.70
2023-02-08T19:41:31.023Z,102811.12
2023-02-08T19:44:01.315Z,102805.80
2023-02-08T19:46:32.963Z,102806.27
2023-02-08T19:49:03.454Z,102802.96
2023-02-08T19:51:37.236Z,102799.79
2023-02-08T19:54:07.310Z,102799.93
2023-02-08T19:56:40.173Z,102800.89
2023-02-08T19:59:10.819Z,102802.93
2023-02-08T20:01:38.028Z,102810.17
2023-02-08T20:04:06.894Z,102811.17
2023-02-08T20:06:36.284Z,102805.86
2023-02-08T20:09:04.056Z,102804.52
2023-02-08T20:11:45.128Z,102801.70
2023-02-08T20:14:21.260Z,102799.48
2023-02-08T20:16:51.214Z,102807.11
2023-02-08T20:19:18.575Z,102801.12
2023-02-08T20:21:48.963Z,102801.48
2023-02-08T20:24:36.318Z,102797.83
2023-02-08T20:27:03.261Z,102791.30
2023-02-08T20:29:33.504Z,102790.98
2023-02-08T20:32:00.778Z,102788.05
2023-02-08T20:34:30.569Z,102785.19
2023-02-08T20:37:11.659Z,102782.17
2023-02-08T20:39:39.284Z,102780.05
2023-02-08T20:42:07.073Z,102780.42
2023-02-08T20:44:43.327Z,102782.03
2023-02-08T20:47:10.803Z,102786.29
2023-02-08T20:49:38.906Z,102786.57
2023-02-08T20:52:06.424Z,102787.33
2023-02-08T20:54:33.537Z,102784.71
2023-02-08T20:57:03.655Z,102779.34
2023-02-08T20:59:30.892Z,102780.40
2023-02-08T21:02:01.076Z,102777.53
2023-02-08T21:04:28.061Z,102779.13
2023-02-08T21:06:58.225Z,102774.44
2023-02-08T21:09:25.661Z,102773.83
2023-02-08T21:11:53.387Z,102778.55
2023-02-08T21:14:23.563Z,102776.95
2023-02-08T21:16:52.890Z,102778.60
2023-02-08T21:19:32.337Z,102776.00
2023-02-08T21:22:02.205Z,102773.11
2023-02-08T21:24:40.524Z,102774.59
2023-02-08T21:27:07.817Z,102774.98
2023-02-08T21:29:34.785Z,102776.19
2023-02-08T21:32:02.089Z,102775.23
2023-02-08T21:34:39.226Z,102775.79
2023-02-08T21:37:06.312Z,102774.48
2023-02-08T21:39:33.260Z,102773.09
2023-02-08T21:42:02.782Z,102772.80
2023-02-08T21:44:39.895Z,102772.42
2023-02-08T21:47:07.124Z,102769.39
2023-02-08T21:49:51.881Z,102769.80
2023-02-08T21:52:47.851Z,102759.84
2023-02-08T21:55:15.118Z,102764.16
2023-02-08T21:57:42.194Z,102759.48
2023-02-08T22:00:20.514Z,102759.42
2023-02-08T22:02:47.546Z,102758.00
2023-02-08T22:05:19.658Z,102755.00
2023-02-08T22:07:50.429Z,102747.75
2023-02-08T22:10:20.365Z,102741.90
2023-02-08T22:12:48.696Z,102743.99
2023-02-08T22:15:18.404Z,102739.91
2023-02-08T22:17:46.432Z,102734.06
2023-02-08T22:20:15.119Z,102732.25
2023-02-08T22:23:03.432Z,102734.59
2023-02-08T22:25:50.700Z,102737.00
2023-02-08T22:28:17.729Z,102740.16
2023-02-08T22:30:48.003Z,102739.19
2023-02-08T22:33:15.448Z,102735.89
2023-02-08T22:35:42.597Z,102725.89
2023-02-08T22:38:09.678Z,102723.34
2023-02-08T22:40:36.610Z,102717.66
2023-02-08T22:43:03.754Z,102709.06
2023-02-08T22:45:31.041Z,102707.44
2023-02-08T22:47:58.225Z,102706.85
2023-02-08T22:50:27.563Z,102708.40
2023-02-08T22:52:54.684Z,102703.43
2023-02-08T22:55:24.851Z,102695.52
2023-02-08T22:57:51.791Z,102693.91
2023-02-08T23:00:20.932Z,102684.55
2023-02-08T23:02:47.933Z,102685.59
2023-02-08T23:05:15.454Z,102685.11
2023-02-08T23:07:42.367Z,102684.64
2023-02-08T23:10:13.531Z,102682.58
2023-02-08T23:12:40.635Z,102680.90
2023-02-08T23:15:28.093Z,102684.02
2023-02-08T23:17:55.306Z,102679.40
2023-02-08T23:20:22.526Z,102676.36
2023-02-08T23:22:49.824Z,102671.34
2023-02-08T23:25:16.997Z,102664.48
2023-02-08T23:27:44.316Z,102659.11
2023-02-08T23:30:12.919Z,102656.33
2023-02-08T23:32:42.481Z,102653.83
2023-02-08T23:35:11.373Z,102648.20
2023-02-08T23:37:38.849Z,102650.71
2023-02-08T23:40:06.906Z,102642.36
2023-02-08T23:42:34.051Z,102640.09
2023-02-08T23:45:02.484Z,102641.91
2023-02-08T23:47:30.917Z,102643.53
2023-02-08T23:50:01.321Z,102641.91
2023-02-08T23:52:28.350Z,102639.04
2023-02-08T23:54:55.591Z,102642.04
2023-02-08T23:57:25.972Z,102642.65
2023-02-08T23:59:53.002Z,102645.14
